Bara Ar Vro — FQBA — position and weather

sailwx.info

Track history (hours):
 
Tides and Currents Weather Stations Pressure Air Temp Water Temp Dewpoint Dewpoint Depression Visibility Wind Speed Wind Dir Waves Ship Positions

Bara Ar Vro

Last reported at 2018-Jul-16 14:58 UTC. Time now 2018-Jul-19 23:17 UTC.
Position N 48°16' W 005°36'.

Length 22 m; draft 3.8 m.

Type: Fishing. MMSI: 228935000.

Date/timePositionNaut miles runAvg speedWind from/ knotsBaromVisibWave heightAir tempDewpointWater temp
2018-Jul-16 14:58N 48°16' W 005°36'11 9.1
2018-Jul-16 13:48N 48°09' W 005°24'8 8.6
2018-Jul-16 12:53N 48°04' W 005°15'5 9.7
2018-Jul-16 12:24N 48°02' W 005°09'4 9.8
2018-Jul-16 12:00N 47°59' W 005°04'5 9.5
2018-Jul-16 11:30N 47°56' W 004°58'4 8.7
2018-Jul-16 11:00N 47°54' W 004°53'4 8.9
2018-Jul-16 10:31N 47°52' W 004°47'5 8.7
2018-Jul-16 09:53N 47°50' W 004°40'6 8.7
2018-Jul-16 09:13N 47°48' W 004°31'2 8.8
2018-Jul-16 09:00N 47°47' W 004°29'8 5.3
2018-Jul-16 07:30N 47°48' W 004°17'  
2018-Jul-12 10:38N 47°48' W 004°27'16 6.3
2018-Jul-12 08:10N 47°54' W 004°48'1 6.1
2018-Jul-12 07:58N 47°54' W 004°50'3 5.4
2018-Jul-12 07:29N 47°56' W 004°53'3 5.8
2018-Jul-12 06:53N 47°57' W 004°58'7 6.5
2018-Jul-12 05:48N 48°00' W 005°08'6 8.8
2018-Jul-12 05:06N 48°03' W 005°16'1 8.4
2018-Jul-12 04:58N 48°03' W 005°17'4 8.2
2018-Jul-12 04:28N 48°05' W 005°23'4 8.1
2018-Jul-12 04:00N 48°06' W 005°28'4 8.0
2018-Jul-12 03:26N 48°08' W 005°34'11 7.2
2018-Jul-12 01:53N 48°13' W 005°50'7 7.3
2018-Jul-12 00:58N 48°16' W 005°59'10 7.3
2018-Jul-11 23:33N 48°20' W 006°13'  
Track history (hours):
 
Tides and Currents Weather Stations Pressure Air Temp Water Temp Dewpoint Dewpoint Depression Visibility Wind Speed Wind Dir Waves Ship Positions

Bara Ar Vro

Last reported at 2018-Jul-16 14:58 UTC. Time now 2018-Jul-19 23:17 UTC.
Position N 48°16' W 005°36'.

Length 22 m; draft 3.8 m.

Type: Fishing. MMSI: 228935000.

Date/timePositionNaut miles runAvg speedWind from/ knotsBaromVisibWave heightAir tempDewpointWater temp
2018-Jul-16 14:58N 48°16' W 005°36'11 9.1
2018-Jul-16 13:48N 48°09' W 005°24'8 8.6
2018-Jul-16 12:53N 48°04' W 005°15'5 9.7
2018-Jul-16 12:24N 48°02' W 005°09'4 9.8
2018-Jul-16 12:00N 47°59' W 005°04'5 9.5
2018-Jul-16 11:30N 47°56' W 004°58'4 8.7
2018-Jul-16 11:00N 47°54' W 004°53'4 8.9
2018-Jul-16 10:31N 47°52' W 004°47'5 8.7
2018-Jul-16 09:53N 47°50' W 004°40'6 8.7
2018-Jul-16 09:13N 47°48' W 004°31'2 8.8
2018-Jul-16 09:00N 47°47' W 004°29'8 5.3
2018-Jul-16 07:30N 47°48' W 004°17'  
2018-Jul-12 10:38N 47°48' W 004°27'16 6.3
2018-Jul-12 08:10N 47°54' W 004°48'1 6.1
2018-Jul-12 07:58N 47°54' W 004°50'3 5.4
2018-Jul-12 07:29N 47°56' W 004°53'3 5.8
2018-Jul-12 06:53N 47°57' W 004°58'7 6.5
2018-Jul-12 05:48N 48°00' W 005°08'6 8.8
2018-Jul-12 05:06N 48°03' W 005°16'1 8.4
2018-Jul-12 04:58N 48°03' W 005°17'4 8.2
2018-Jul-12 04:28N 48°05' W 005°23'4 8.1
2018-Jul-12 04:00N 48°06' W 005°28'4 8.0
2018-Jul-12 03:26N 48°08' W 005°34'11 7.2
2018-Jul-12 01:53N 48°13' W 005°50'7 7.3
2018-Jul-12 00:58N 48°16' W 005°59'10 7.3
2018-Jul-11 23:33N 48°20' W 006°13'  

Dump ship's entire track history